createdAt,value
2017-10-22T00:01:26.447Z,53.20
2017-10-22T00:04:00.990Z,53.00
2017-10-22T00:06:29.314Z,53.20
2017-10-22T00:08:57.912Z,53.20
2017-10-22T00:11:27.052Z,53.10
2017-10-22T00:13:57.873Z,53.40
2017-10-22T00:16:26.340Z,53.10
2017-10-22T00:18:55.272Z,53.20
2017-10-22T00:21:26.134Z,52.60
2017-10-22T00:23:54.857Z,52.60
2017-10-22T00:26:23.727Z,52.70
2017-10-22T00:28:53.224Z,52.40
2017-10-22T00:31:23.126Z,52.50
2017-10-22T00:33:51.743Z,52.40
2017-10-22T00:36:20.063Z,52.40
2017-10-22T00:38:48.351Z,52.40
2017-10-22T00:41:16.782Z,53.00
2017-10-22T00:43:45.374Z,52.40
2017-10-22T00:46:13.667Z,52.40
2017-10-22T00:48:42.715Z,52.40
2017-10-22T00:51:11.068Z,52.40
2017-10-22T00:53:39.299Z,52.10
2017-10-22T00:56:08.477Z,52.30
2017-10-22T00:58:36.791Z,52.30
2017-10-22T01:01:05.075Z,51.80
2017-10-22T01:03:33.339Z,52.40
2017-10-22T01:06:02.451Z,52.40
2017-10-22T01:08:30.719Z,52.10
2017-10-22T01:11:00.499Z,52.60
2017-10-22T01:13:29.771Z,52.70
2017-10-22T01:15:58.084Z,52.40
2017-10-22T01:18:26.495Z,52.90
2017-10-22T01:20:54.817Z,52.40
2017-10-22T01:23:23.214Z,52.20
2017-10-22T01:25:51.492Z,52.40
2017-10-22T01:28:19.826Z,52.40
2017-10-22T01:30:48.174Z,52.60
2017-10-22T01:33:18.010Z,52.60
2017-10-22T01:35:47.067Z,52.70
2017-10-22T01:38:15.348Z,52.70
2017-10-22T01:40:43.610Z,52.60
2017-10-22T01:43:12.036Z,52.80
2017-10-22T01:45:41.225Z,52.60
2017-10-22T01:48:10.357Z,53.10
2017-10-22T01:50:38.619Z,53.10
2017-10-22T01:53:06.913Z,52.80
2017-10-22T01:55:35.222Z,53.10
2017-10-22T01:58:04.095Z,52.80
2017-10-22T02:00:32.383Z,52.80
2017-10-22T02:03:01.659Z,52.60
2017-10-22T02:05:29.933Z,52.40
2017-10-22T02:07:58.301Z,52.40
2017-10-22T02:10:27.308Z,52.20
2017-10-22T02:12:55.598Z,52.10
2017-10-22T02:15:23.918Z,52.20
2017-10-22T02:17:52.195Z,52.20
2017-10-22T02:20:21.954Z,52.10
2017-10-22T02:22:50.241Z,52.20
2017-10-22T02:25:18.516Z,52.30
2017-10-22T02:27:46.795Z,52.00
2017-10-22T02:30:15.060Z,52.30
2017-10-22T02:32:44.099Z,51.90
2017-10-22T02:35:14.068Z,51.80
2017-10-22T02:37:42.323Z,51.60
2017-10-22T02:40:11.377Z,51.40
2017-10-22T02:42:40.475Z,51.30
2017-10-22T02:45:08.876Z,51.20
2017-10-22T02:47:38.639Z,50.90
2017-10-22T02:50:07.053Z,50.80
2017-10-22T02:52:35.285Z,50.80
2017-10-22T02:55:03.547Z,50.90
2017-10-22T02:57:31.837Z,50.90
2017-10-22T03:00:00.119Z,50.80
2017-10-22T03:02:28.447Z,50.60
2017-10-22T03:04:56.702Z,50.80
2017-10-22T03:07:25.011Z,50.80
2017-10-22T03:09:54.027Z,50.80
2017-10-22T03:12:22.336Z,50.70
2017-10-22T03:14:50.604Z,50.70
2017-10-22T03:17:18.869Z,50.90
2017-10-22T03:19:47.147Z,50.70
2017-10-22T03:22:15.918Z,50.70
2017-10-22T03:24:44.223Z,50.80
2017-10-22T03:27:13.374Z,50.80
2017-10-22T03:29:41.668Z,51.00
2017-10-22T03:32:10.079Z,50.60
2017-10-22T03:34:38.324Z,50.80
2017-10-22T03:37:06.621Z,50.80
2017-10-22T03:39:35.671Z,50.70
2017-10-22T03:42:04.736Z,50.70
2017-10-22T03:44:33.803Z,50.90
2017-10-22T03:47:02.140Z,50.90
2017-10-22T03:49:31.180Z,50.80
2017-10-22T03:51:59.411Z,50.80
2017-10-22T03:54:28.527Z,50.30
2017-10-22T03:56:56.788Z,50.50
2017-10-22T03:59:26.662Z,50.40
2017-10-22T04:01:54.915Z,50.40
2017-10-22T04:04:23.167Z,50.20
2017-10-22T04:06:53.541Z,50.20
2017-10-22T04:09:21.788Z,50.20
2017-10-22T04:11:50.100Z,51.00
2017-10-22T04:14:18.395Z,50.50
2017-10-22T04:16:46.665Z,50.70
2017-10-22T04:19:14.912Z,50.80
2017-10-22T04:21:43.207Z,50.30
2017-10-22T04:24:11.471Z,51.30
2017-10-22T04:26:39.724Z,51.70
2017-10-22T04:29:08.961Z,52.40
2017-10-22T04:31:37.218Z,52.60
2017-10-22T04:34:05.499Z,53.00
2017-10-22T04:36:33.772Z,53.70
2017-10-22T04:39:02.109Z,53.20
2017-10-22T04:41:31.103Z,53.70
2017-10-22T04:43:59.371Z,53.60
2017-10-22T04:46:28.421Z,54.60
2017-10-22T04:48:56.662Z,54.50
2017-10-22T04:51:24.949Z,54.40
2017-10-22T04:53:53.209Z,54.80
2017-10-22T04:56:22.208Z,55.20
2017-10-22T04:58:53.921Z,55.80
2017-10-22T05:01:22.930Z,56.20
2017-10-22T05:03:51.977Z,56.50
2017-10-22T05:06:20.943Z,56.50
2017-10-22T05:08:49.195Z,56.40
2017-10-22T05:11:18.339Z,56.40
2017-10-22T05:13:47.476Z,56.10
2017-10-22T05:16:15.731Z,56.30
2017-10-22T05:18:44.019Z,57.00
2017-10-22T05:21:13.764Z,57.10
2017-10-22T05:23:42.005Z,56.80
2017-10-22T05:26:12.742Z,57.10
2017-10-22T05:28:42.492Z,57.50
2017-10-22T05:31:10.777Z,57.60
2017-10-22T05:33:39.880Z,57.60
2017-10-22T05:36:09.128Z,57.50
2017-10-22T05:38:37.355Z,57.50
2017-10-22T05:41:06.600Z,57.60
2017-10-22T05:43:36.369Z,58.20
2017-10-22T05:46:04.685Z,58.40
2017-10-22T05:48:32.946Z,58.20
2017-10-22T05:51:01.222Z,58.20
2017-10-22T05:53:29.467Z,58.30
2017-10-22T05:55:57.760Z,58.50
2017-10-22T05:58:26.008Z,58.40
2017-10-22T06:00:54.292Z,58.20
2017-10-22T06:03:22.549Z,58.20
2017-10-22T06:05:51.584Z,58.30
2017-10-22T06:08:19.867Z,58.20
2017-10-22T06:10:48.161Z,58.20
2017-10-22T06:13:17.944Z,58.80
2017-10-22T06:15:47.982Z,58.90
2017-10-22T06:18:16.236Z,58.40
2017-10-22T06:20:44.512Z,58.60
2017-10-22T06:23:12.872Z,58.90
2017-10-22T06:25:41.160Z,58.80
2017-10-22T06:28:09.435Z,59.10
2017-10-22T06:30:37.714Z,59.30
2017-10-22T06:33:05.972Z,59.60
2017-10-22T06:35:34.962Z,59.60
2017-10-22T06:38:03.683Z,59.70
2017-10-22T06:40:32.278Z,59.60
2017-10-22T06:43:02.080Z,59.50
2017-10-22T06:45:31.108Z,59.60
2017-10-22T06:48:00.435Z,60.00
2017-10-22T06:50:29.526Z,59.80
2017-10-22T06:52:58.780Z,60.00
2017-10-22T06:55:28.793Z,59.90
2017-10-22T06:57:59.874Z,60.00
2017-10-22T07:00:28.269Z,59.80
2017-10-22T07:02:56.560Z,60.10
2017-10-22T07:05:24.863Z,60.10
2017-10-22T07:07:53.962Z,60.10
2017-10-22T07:10:22.240Z,60.20
2017-10-22T07:12:50.540Z,60.30
2017-10-22T07:15:18.922Z,60.20
2017-10-22T07:17:47.172Z,60.10
2017-10-22T07:20:16.233Z,60.70
2017-10-22T07:22:44.525Z,60.60
2017-10-22T07:25:12.926Z,60.20
2017-10-22T07:27:41.330Z,60.30
2017-10-22T07:30:09.664Z,60.00
2017-10-22T07:32:38.779Z,59.90
2017-10-22T07:35:07.156Z,60.20
2017-10-22T07:37:36.370Z,60.30
2017-10-22T07:40:05.659Z,60.50
2017-10-22T07:42:34.635Z,60.80
2017-10-22T07:45:03.764Z,60.50
2017-10-22T07:47:32.943Z,60.90
2017-10-22T07:50:01.230Z,60.80
2017-10-22T07:52:30.505Z,60.60
2017-10-22T07:54:58.777Z,60.80
2017-10-22T07:57:27.067Z,60.70
2017-10-22T07:59:55.329Z,60.60
2017-10-22T08:02:23.645Z,60.80
2017-10-22T08:04:53.447Z,60.80
2017-10-22T08:07:23.265Z,60.50
2017-10-22T08:09:51.569Z,60.60
2017-10-22T08:12:20.653Z,60.70
2017-10-22T08:14:50.471Z,60.70
2017-10-22T08:17:19.705Z,60.40
2017-10-22T08:19:48.001Z,60.70
2017-10-22T08:22:16.401Z,60.60
2017-10-22T08:24:46.445Z,60.70
2017-10-22T08:27:15.480Z,60.50
2017-10-22T08:29:43.804Z,60.40
2017-10-22T08:32:12.929Z,60.50
2017-10-22T08:34:43.018Z,61.20
2017-10-22T08:37:12.937Z,60.40
2017-10-22T08:39:41.240Z,60.40
2017-10-22T08:42:10.292Z,61.00
2017-10-22T08:44:39.823Z,61.20
2017-10-22T08:47:09.015Z,61.00
2017-10-22T08:49:37.352Z,60.60
2017-10-22T08:52:05.695Z,60.50
2017-10-22T08:54:35.015Z,60.60
2017-10-22T08:57:03.325Z,60.40
2017-10-22T09:02:06.737Z,60.60
2017-10-22T09:04:35.098Z,60.60
2017-10-22T09:07:03.480Z,60.50
2017-10-22T09:09:33.341Z,60.40
2017-10-22T09:12:01.716Z,60.30
2017-10-22T09:14:30.893Z,60.20
2017-10-22T09:17:00.128Z,60.00
2017-10-22T09:19:28.510Z,60.20
2017-10-22T09:21:56.973Z,59.90
2017-10-22T09:24:27.946Z,59.90
2017-10-22T09:26:58.743Z,59.70
2017-10-22T09:29:27.960Z,59.40
2017-10-22T09:31:56.619Z,59.50
2017-10-22T09:34:25.415Z,59.40
2017-10-22T09:36:53.830Z,59.60
2017-10-22T09:39:23.803Z,59.70
2017-10-22T09:41:52.596Z,59.70
2017-10-22T09:44:21.930Z,59.60
2017-10-22T09:46:50.823Z,59.40
2017-10-22T09:49:19.552Z,59.40
2017-10-22T09:51:47.845Z,59.10
2017-10-22T09:54:16.409Z,59.00
2017-10-22T09:56:47.185Z,59.40
2017-10-22T09:59:16.357Z,59.60
2017-10-22T10:01:44.813Z,59.30
2017-10-22T10:04:13.520Z,59.20
2017-10-22T10:06:42.590Z,59.10
2017-10-22T10:09:13.885Z,58.90
2017-10-22T10:11:46.952Z,58.80
2017-10-22T10:14:18.427Z,58.90
2017-10-22T10:16:49.282Z,58.90
2017-10-22T10:19:20.238Z,58.90
2017-10-22T10:21:51.103Z,58.90
2017-10-22T10:24:20.994Z,59.10
2017-10-22T10:26:50.352Z,58.90
2017-10-22T10:29:23.571Z,58.70
2017-10-22T10:31:52.053Z,58.90
2017-10-22T10:34:20.419Z,59.10
2017-10-22T10:36:49.184Z,58.90
2017-10-22T10:39:17.484Z,59.10
2017-10-22T10:41:45.994Z,59.20
2017-10-22T10:44:14.424Z,59.20
2017-10-22T10:46:43.712Z,59.40
2017-10-22T10:49:12.178Z,60.50
2017-10-22T10:51:40.511Z,59.50
2017-10-22T10:54:08.917Z,59.70
2017-10-22T10:56:37.218Z,60.30
2017-10-22T10:59:05.742Z,59.80
2017-10-22T11:01:34.070Z,60.00
2017-10-22T11:04:02.458Z,60.30
2017-10-22T11:06:31.678Z,60.40
2017-10-22T11:09:01.565Z,60.50
2017-10-22T11:11:30.043Z,60.50
2017-10-22T11:13:58.580Z,60.30
2017-10-22T11:16:27.139Z,60.50
2017-10-22T11:18:55.674Z,61.00
2017-10-22T11:21:24.932Z,60.50
2017-10-22T11:23:54.888Z,60.80
2017-10-22T11:26:23.226Z,60.60
2017-10-22T11:28:52.308Z,60.90
2017-10-22T11:31:20.707Z,61.20
2017-10-22T11:33:49.886Z,61.40
2017-10-22T11:36:19.197Z,60.80
2017-10-22T11:38:48.414Z,60.50
2017-10-22T11:41:19.790Z,60.50
2017-10-22T11:43:49.037Z,60.50
2017-10-22T11:46:17.920Z,60.80
2017-10-22T11:48:46.289Z,60.40
2017-10-22T11:51:14.753Z,60.90
2017-10-22T11:53:44.627Z,60.70
2017-10-22T11:56:14.787Z,60.70
2017-10-22T11:58:43.298Z,60.50
2017-10-22T12:01:12.623Z,60.90
2017-10-22T12:03:44.063Z,61.10
2017-10-22T12:06:16.696Z,61.30
2017-10-22T12:08:45.133Z,61.30
2017-10-22T12:11:15.459Z,61.60
2017-10-22T12:13:44.132Z,61.50
2017-10-22T12:16:12.488Z,61.50
2017-10-22T12:18:42.485Z,61.40
2017-10-22T12:21:12.636Z,61.10
2017-10-22T12:23:41.412Z,61.10
2017-10-22T12:26:11.342Z,60.90
2017-10-22T12:28:40.553Z,61.00
2017-10-22T12:31:09.676Z,61.10
2017-10-22T12:33:39.859Z,62.00
2017-10-22T12:36:09.159Z,61.20
2017-10-22T12:38:38.348Z,61.10
2017-10-22T12:41:06.999Z,60.90
2017-10-22T12:43:36.543Z,61.10
2017-10-22T12:46:05.774Z,60.70
2017-10-22T12:48:34.757Z,60.60
2017-10-22T12:51:03.998Z,60.90
2017-10-22T12:53:34.913Z,60.50
2017-10-22T12:56:04.278Z,60.20
2017-10-22T12:58:36.562Z,60.30
2017-10-22T13:01:09.309Z,60.00
2017-10-22T13:03:38.891Z,60.30
2017-10-22T13:06:07.446Z,60.30
2017-10-22T13:08:36.764Z,59.90
2017-10-22T13:11:05.262Z,60.00
2017-10-22T13:13:34.735Z,59.60
2017-10-22T13:16:04.596Z,59.80
2017-10-22T13:18:33.554Z,59.70
2017-10-22T13:21:02.389Z,59.60
2017-10-22T13:23:32.592Z,59.40
2017-10-22T13:26:01.066Z,59.70
2017-10-22T13:28:31.496Z,59.50
2017-10-22T13:31:00.047Z,59.60
2017-10-22T13:36:05.086Z,59.40
2017-10-22T13:38:33.619Z,60.20
2017-10-22T13:41:03.010Z,59.60
2017-10-22T13:43:32.468Z,59.60
2017-10-22T13:46:00.934Z,59.60
2017-10-22T13:48:31.104Z,59.60
2017-10-22T13:51:00.681Z,59.40
2017-10-22T13:53:30.912Z,59.50
2017-10-22T13:55:59.270Z,59.40
2017-10-22T13:58:29.261Z,59.40
2017-10-22T14:00:58.536Z,59.20
2017-10-22T14:03:26.963Z,59.50
2017-10-22T14:05:56.306Z,59.50
2017-10-22T14:08:25.527Z,59.50
2017-10-22T14:10:54.595Z,59.60
2017-10-22T14:13:23.015Z,59.40
2017-10-22T14:18:26.384Z,59.70
2017-10-22T14:20:59.049Z,59.40
2017-10-22T14:23:28.245Z,59.40
2017-10-22T14:25:56.738Z,59.40
2017-10-22T14:28:26.627Z,59.40
2017-10-22T14:30:56.600Z,59.60
2017-10-22T14:33:26.788Z,59.40
2017-10-22T14:35:55.901Z,59.70
2017-10-22T14:38:25.980Z,59.70
2017-10-22T14:41:00.206Z,59.70
2017-10-22T14:43:30.279Z,59.70
2017-10-22T14:46:01.219Z,59.60
2017-10-22T14:48:30.585Z,59.70
2017-10-22T14:51:00.905Z,59.70
2017-10-22T14:53:29.276Z,59.70
2017-10-22T14:56:04.872Z,59.60
2017-10-22T14:58:34.035Z,59.80
2017-10-22T15:01:02.562Z,59.60
2017-10-22T15:03:32.375Z,59.70
2017-10-22T15:06:01.672Z,59.40
2017-10-22T15:08:31.727Z,59.60
2017-10-22T15:11:00.502Z,59.00
2017-10-22T15:13:28.973Z,59.00
2017-10-22T15:15:57.507Z,59.00
2017-10-22T15:18:27.797Z,58.70
2017-10-22T15:20:58.214Z,59.00
2017-10-22T15:23:26.654Z,58.80
2017-10-22T15:26:02.897Z,59.50
2017-10-22T15:28:32.328Z,59.00
2017-10-22T15:31:02.084Z,59.30
2017-10-22T15:33:32.654Z,58.60
2017-10-22T15:36:01.978Z,58.60
2017-10-22T15:38:32.331Z,58.10
2017-10-22T15:41:02.530Z,58.30
2017-10-22T15:43:31.764Z,58.40
2017-10-22T15:46:01.853Z,58.70
2017-10-22T15:48:30.255Z,58.90
2017-10-22T15:51:00.522Z,58.90
2017-10-22T15:53:31.712Z,59.40
2017-10-22T15:56:01.052Z,59.60
2017-10-22T15:58:38.032Z,58.90
2017-10-22T16:01:09.122Z,59.50
2017-10-22T16:03:38.561Z,59.70
2017-10-22T16:06:08.054Z,59.40
2017-10-22T16:08:37.461Z,59.10
2017-10-22T16:11:12.961Z,58.90
2017-10-22T16:13:44.113Z,58.90
2017-10-22T16:16:14.224Z,59.20
2017-10-22T16:18:43.952Z,59.40
2017-10-22T16:21:15.557Z,59.00
2017-10-22T16:23:47.212Z,59.40
2017-10-22T16:26:18.493Z,59.20
2017-10-22T16:28:48.596Z,59.40
2017-10-22T16:31:23.886Z,59.50
2017-10-22T16:33:54.728Z,58.90
2017-10-22T16:36:25.125Z,58.80
2017-10-22T16:38:55.407Z,59.00
2017-10-22T16:41:24.037Z,58.60
2017-10-22T16:43:54.361Z,59.00
2017-10-22T16:46:22.908Z,59.10
2017-10-22T16:48:52.327Z,59.00
2017-10-22T16:51:21.918Z,58.80
2017-10-22T16:53:51.975Z,58.50
2017-10-22T16:56:21.062Z,59.00
2017-10-22T16:58:51.536Z,58.20
2017-10-22T17:01:21.130Z,58.40
2017-10-22T17:03:50.553Z,58.10
2017-10-22T17:06:19.058Z,57.00
2017-10-22T17:08:47.723Z,57.50
2017-10-22T17:11:23.939Z,57.50
2017-10-22T17:13:55.937Z,57.40
2017-10-22T17:16:25.580Z,57.40
2017-10-22T17:18:55.150Z,57.40
2017-10-22T17:21:27.421Z,57.20
2017-10-22T17:23:57.885Z,57.50
2017-10-22T17:26:29.100Z,57.80
2017-10-22T17:29:01.128Z,57.70
2017-10-22T17:31:37.020Z,57.60
2017-10-22T17:34:11.467Z,57.50
2017-10-22T17:36:45.250Z,57.30
2017-10-22T17:39:18.280Z,57.40
2017-10-22T17:41:51.403Z,57.40
2017-10-22T17:44:30.545Z,57.00
2017-10-22T17:47:09.882Z,57.20
2017-10-22T17:49:47.071Z,57.20
2017-10-22T17:52:18.210Z,57.40
2017-10-22T17:54:48.215Z,57.60
2017-10-22T17:57:18.142Z,57.50
2017-10-22T17:59:47.750Z,57.30
2017-10-22T18:02:17.173Z,57.20
2017-10-22T18:04:48.104Z,57.20
2017-10-22T18:07:17.558Z,57.20
2017-10-22T18:09:47.353Z,57.00
2017-10-22T18:12:17.631Z,56.50
2017-10-22T18:14:50.976Z,56.50
2017-10-22T18:17:20.347Z,56.70
2017-10-22T18:19:54.902Z,56.60
2017-10-22T18:22:24.372Z,56.70
2017-10-22T18:24:53.968Z,56.50
2017-10-22T18:27:22.987Z,56.60
2017-10-22T18:29:56.125Z,56.60
2017-10-22T18:32:27.104Z,56.30
2017-10-22T18:34:57.466Z,56.40
2017-10-22T18:37:29.674Z,56.50
2017-10-22T18:39:59.620Z,56.40
2017-10-22T18:42:28.487Z,56.30
2017-10-22T18:44:59.449Z,57.30
2017-10-22T18:47:29.215Z,56.50
2017-10-22T18:49:58.769Z,56.30
2017-10-22T18:52:33.472Z,56.10
2017-10-22T18:55:06.310Z,55.80
2017-10-22T18:57:36.908Z,55.90
2017-10-22T19:00:07.082Z,55.60
2017-10-22T19:02:39.000Z,55.90
2017-10-22T19:05:17.031Z,55.80
2017-10-22T19:07:50.396Z,55.90
2017-10-22T19:10:25.370Z,55.90
2017-10-22T19:13:01.127Z,55.80
2017-10-22T19:15:36.368Z,55.90
2017-10-22T19:18:09.374Z,55.70
2017-10-22T19:20:43.157Z,55.90
2017-10-22T19:23:17.076Z,55.80
2017-10-22T19:25:48.162Z,55.60
2017-10-22T19:28:17.167Z,55.60
2017-10-22T19:30:47.468Z,55.60
2017-10-22T19:33:19.019Z,56.10
2017-10-22T19:35:50.985Z,55.40
2017-10-22T19:38:29.272Z,55.90
2017-10-22T19:40:59.911Z,55.70
2017-10-22T19:43:32.152Z,55.90
2017-10-22T19:46:02.927Z,55.90
2017-10-22T19:48:35.491Z,55.60
2017-10-22T19:51:05.065Z,55.30
2017-10-22T19:53:35.497Z,55.30
2017-10-22T19:56:04.815Z,55.40
2017-10-22T19:58:34.347Z,55.20
2017-10-22T20:01:03.949Z,55.10
2017-10-22T20:03:33.362Z,55.40
2017-10-22T20:06:02.288Z,54.90
2017-10-22T20:08:32.016Z,54.80
2017-10-22T20:11:04.426Z,54.70
2017-10-22T20:13:35.642Z,54.80
2017-10-22T20:16:05.354Z,54.80
2017-10-22T20:18:39.657Z,54.70
2017-10-22T20:21:11.101Z,55.80
2017-10-22T20:23:40.042Z,55.30
2017-10-22T20:26:10.087Z,55.20
2017-10-22T20:28:42.795Z,55.90
2017-10-22T20:31:12.066Z,55.30
2017-10-22T20:33:41.369Z,55.70
2017-10-22T20:36:10.021Z,55.60
2017-10-22T20:38:40.355Z,55.80
2017-10-22T20:41:12.594Z,56.20
2017-10-22T20:43:42.082Z,56.20
2017-10-22T20:46:21.108Z,56.10
2017-10-22T20:48:49.745Z,56.00
2017-10-22T20:51:18.528Z,56.10
2017-10-22T20:53:49.194Z,55.80
2017-10-22T20:56:19.335Z,55.80
2017-10-22T20:58:47.869Z,55.90
2017-10-22T21:01:16.745Z,56.10
2017-10-22T21:03:47.258Z,55.90
2017-10-22T21:06:18.908Z,56.00
2017-10-22T21:08:51.717Z,56.20
2017-10-22T21:11:27.933Z,56.20
2017-10-22T21:13:56.286Z,56.10
2017-10-22T21:16:25.780Z,56.00
2017-10-22T21:18:54.550Z,55.90
2017-10-22T21:21:24.214Z,55.60
2017-10-22T21:23:53.705Z,55.70
2017-10-22T21:26:25.279Z,55.60
2017-10-22T21:28:55.565Z,55.50
2017-10-22T21:31:24.142Z,55.60
2017-10-22T21:33:53.632Z,55.80
2017-10-22T21:36:22.994Z,55.70
2017-10-22T21:38:52.761Z,55.50
2017-10-22T21:41:26.370Z,55.70
2017-10-22T21:43:54.932Z,55.50
2017-10-22T21:46:23.430Z,55.50
2017-10-22T21:48:51.893Z,55.50
2017-10-22T21:51:21.194Z,55.60
2017-10-22T21:53:54.675Z,55.40
2017-10-22T21:56:30.048Z,55.40
2017-10-22T21:59:00.260Z,55.70
2017-10-22T22:01:30.512Z,55.90
2017-10-22T22:03:59.759Z,55.90
2017-10-22T22:06:29.189Z,56.00
2017-10-22T22:08:57.574Z,55.70
2017-10-22T22:11:27.160Z,55.90
2017-10-22T22:13:56.917Z,56.10
2017-10-22T22:16:25.367Z,56.00
2017-10-22T22:18:55.898Z,55.90
2017-10-22T22:21:25.969Z,55.70
2017-10-22T22:23:54.516Z,55.80
2017-10-22T22:26:23.873Z,55.90
2017-10-22T22:28:53.026Z,55.50
2017-10-22T22:31:28.632Z,55.60
2017-10-22T22:33:59.077Z,55.60
2017-10-22T22:36:28.319Z,55.50
2017-10-22T22:38:58.689Z,55.80
2017-10-22T22:41:28.833Z,55.60
2017-10-22T22:43:58.773Z,55.80
2017-10-22T22:46:27.126Z,55.60
2017-10-22T22:48:55.490Z,55.90
2017-10-22T22:51:26.519Z,55.60
2017-10-22T22:53:55.760Z,55.40
2017-10-22T22:56:26.153Z,56.00
2017-10-22T22:58:56.526Z,55.80
2017-10-22T23:01:25.639Z,55.60
2017-10-22T23:03:57.805Z,56.10
2017-10-22T23:06:27.117Z,55.80
2017-10-22T23:08:57.190Z,56.50
2017-10-22T23:11:26.358Z,56.00
2017-10-22T23:13:55.675Z,56.00
2017-10-22T23:16:24.985Z,56.20
2017-10-22T23:18:53.302Z,56.50
2017-10-22T23:21:21.697Z,56.60
2017-10-22T23:23:49.994Z,56.40
2017-10-22T23:26:23.718Z,56.50
2017-10-22T23:28:52.043Z,56.90
2017-10-22T23:31:22.492Z,56.50
2017-10-22T23:33:51.830Z,56.40
2017-10-22T23:36:21.138Z,56.50
2017-10-22T23:38:54.656Z,56.40
2017-10-22T23:41:23.931Z,56.70
2017-10-22T23:43:54.210Z,56.80
2017-10-22T23:46:24.481Z,56.70
2017-10-22T23:48:53.862Z,56.90
2017-10-22T23:51:22.294Z,56.80
2017-10-22T23:53:52.342Z,57.00
2017-10-22T23:56:23.298Z,57.20
2017-10-22T23:58:53.605Z,56.90
